createdAt,value
2018-09-05T00:00:18.512Z,17.69
2018-09-05T00:02:48.537Z,17.73
2018-09-05T00:05:18.416Z,17.66
2018-09-05T00:07:48.629Z,17.63
2018-09-05T00:10:19.390Z,17.69
2018-09-05T00:12:50.038Z,17.76
2018-09-05T00:15:20.969Z,17.85
2018-09-05T00:17:53.717Z,17.83
2018-09-05T00:20:26.122Z,17.89
2018-09-05T00:22:57.113Z,17.97
2018-09-05T00:25:27.367Z,18.01
2018-09-05T00:27:58.817Z,18.05
2018-09-05T00:30:28.785Z,18.10
2018-09-05T00:33:01.205Z,18.02
2018-09-05T00:35:35.979Z,17.95
2018-09-05T00:38:07.010Z,17.92
2018-09-05T00:40:39.011Z,17.87
2018-09-05T00:43:10.357Z,17.73
2018-09-05T00:45:41.023Z,17.61
2018-09-05T00:48:11.484Z,17.55
2018-09-05T00:50:41.697Z,17.52
2018-09-05T00:53:11.811Z,17.52
2018-09-05T00:55:41.933Z,17.50
2018-09-05T00:58:12.285Z,17.53
2018-09-05T01:00:42.512Z,17.38
2018-09-05T01:03:13.093Z,17.33
2018-09-05T01:05:43.122Z,17.10
2018-09-05T01:08:12.945Z,17.23
2018-09-05T01:10:43.665Z,17.29
2018-09-05T01:13:14.689Z,17.24
2018-09-05T01:15:44.804Z,17.20
2018-09-05T01:18:15.246Z,17.20
2018-09-05T01:20:45.437Z,17.16
2018-09-05T01:23:16.325Z,17.02
2018-09-05T01:25:46.368Z,17.02
2018-09-05T01:28:16.505Z,17.05
2018-09-05T01:30:46.465Z,17.13
2018-09-05T01:33:16.508Z,17.03
2018-09-05T01:35:46.967Z,17.06
2018-09-05T01:38:17.130Z,17.08
2018-09-05T01:40:46.841Z,17.06
2018-09-05T01:43:16.656Z,17.08
2018-09-05T01:45:46.517Z,17.06
2018-09-05T01:48:17.119Z,17.08
2018-09-05T01:50:47.005Z,16.95
2018-09-05T01:53:18.320Z,16.90
2018-09-05T01:55:49.055Z,16.86
2018-09-05T01:58:19.067Z,16.89
2018-09-05T02:00:49.107Z,16.83
2018-09-05T02:03:19.304Z,16.84
2018-09-05T02:05:49.557Z,16.83
2018-09-05T02:08:20.016Z,16.85
2018-09-05T02:10:51.119Z,16.81
2018-09-05T02:13:22.241Z,16.74
2018-09-05T02:15:52.108Z,16.70
2018-09-05T02:18:22.193Z,16.76
2018-09-05T02:20:52.320Z,16.58
2018-09-05T02:23:22.204Z,16.53
2018-09-05T02:25:52.526Z,16.47
2018-09-05T02:28:23.229Z,16.52
2018-09-05T02:30:53.666Z,16.53
2018-09-05T02:33:23.661Z,16.52
2018-09-05T02:35:53.758Z,16.45
2018-09-05T02:38:25.556Z,16.38
2018-09-05T02:40:55.724Z,16.35
2018-09-05T02:43:30.777Z,16.46
2018-09-05T02:46:00.762Z,16.49
2018-09-05T02:48:31.251Z,16.55
2018-09-05T02:51:01.257Z,16.65
2018-09-05T02:53:31.576Z,16.65
2018-09-05T02:56:04.083Z,16.61
2018-09-05T02:58:35.754Z,16.54
2018-09-05T03:01:06.686Z,16.58
2018-09-05T03:03:38.273Z,16.55
2018-09-05T03:06:08.034Z,16.48
2018-09-05T03:08:37.615Z,16.59
2018-09-05T03:11:07.555Z,16.64
2018-09-05T03:13:37.343Z,16.63
2018-09-05T03:16:07.053Z,16.58
2018-09-05T03:18:39.135Z,16.60
2018-09-05T03:21:16.334Z,16.49
2018-09-05T03:23:46.680Z,16.59
2018-09-05T03:26:16.938Z,16.60
2018-09-05T03:28:49.601Z,16.59
2018-09-05T03:31:23.179Z,16.55
2018-09-05T03:33:53.241Z,16.46
2018-09-05T03:36:25.984Z,16.21
2018-09-05T03:38:56.149Z,16.34
2018-09-05T03:41:25.889Z,16.32
2018-09-05T03:43:56.912Z,16.26
2018-09-05T03:46:26.982Z,16.41
2018-09-05T03:49:00.047Z,16.49
2018-09-05T03:51:31.198Z,16.55
2018-09-05T03:54:02.001Z,16.50
2018-09-05T03:56:31.926Z,16.44
2018-09-05T03:59:01.962Z,16.48
2018-09-05T04:01:31.952Z,16.35
2018-09-05T04:04:01.600Z,16.36
2018-09-05T04:06:31.319Z,16.24
2018-09-05T04:09:01.666Z,16.16
2018-09-05T04:11:32.465Z,16.04
2018-09-05T04:14:03.941Z,16.24
2018-09-05T04:16:33.918Z,16.23
2018-09-05T04:19:04.034Z,16.14
2018-09-05T04:21:34.699Z,16.08
2018-09-05T04:24:06.621Z,16.18
2018-09-05T04:28:45.473Z,16.08
2018-09-05T04:31:16.347Z,15.99
2018-09-05T04:33:45.733Z,15.96
2018-09-05T04:36:16.604Z,15.91
2018-09-05T04:38:47.084Z,15.78
2018-09-05T04:41:17.599Z,15.80
2018-09-05T04:43:47.275Z,15.60
2018-09-05T04:46:17.504Z,15.65
2018-09-05T04:48:47.722Z,15.85
2018-09-05T04:51:17.427Z,15.85
2018-09-05T04:53:47.816Z,15.90
2018-09-05T04:56:17.781Z,15.89
2018-09-05T04:58:47.235Z,15.95
2018-09-05T05:01:18.463Z,15.90
2018-09-05T05:03:49.232Z,15.79
2018-09-05T05:06:19.131Z,15.81
2018-09-05T05:08:50.802Z,15.76
2018-09-05T05:11:20.570Z,15.78
2018-09-05T05:13:50.101Z,15.86
2018-09-05T05:16:20.677Z,15.88
2018-09-05T05:18:51.688Z,15.92
2018-09-05T05:21:21.522Z,16.00
2018-09-05T05:23:51.604Z,16.11
2018-09-05T05:26:22.155Z,16.15
2018-09-05T05:28:52.823Z,16.28
2018-09-05T05:31:23.256Z,16.29
2018-09-05T05:33:53.318Z,16.37
2018-09-05T05:36:24.149Z,16.46
2018-09-05T05:38:54.340Z,16.56
2018-09-05T05:41:24.323Z,16.49
2018-09-05T05:43:54.078Z,16.70
2018-09-05T05:46:24.437Z,16.93
2018-09-05T05:48:53.938Z,17.13
2018-09-05T05:51:23.487Z,17.24
2018-09-05T05:53:53.970Z,17.37
2018-09-05T05:56:24.890Z,17.44
2018-09-05T05:58:54.858Z,17.61
2018-09-05T06:01:25.884Z,17.74
2018-09-05T06:03:56.749Z,17.69
2018-09-05T06:06:28.419Z,17.86
2018-09-05T06:08:58.944Z,17.82
2018-09-05T06:11:29.352Z,17.81
2018-09-05T06:13:58.839Z,17.84
2018-09-05T06:16:28.774Z,17.91
2018-09-05T06:18:59.040Z,17.97
2018-09-05T06:21:29.006Z,18.06
2018-09-05T06:24:01.037Z,18.14
2018-09-05T06:26:31.745Z,18.19
2018-09-05T06:29:01.760Z,18.25
2018-09-05T06:31:33.229Z,18.32
2018-09-05T06:34:03.790Z,18.35
2018-09-05T06:36:34.512Z,18.46
2018-09-05T06:39:05.207Z,18.46
2018-09-05T06:41:34.860Z,18.44
2018-09-05T06:44:04.962Z,18.50
2018-09-05T06:46:35.174Z,18.44
2018-09-05T06:49:04.773Z,18.34
2018-09-05T06:51:36.094Z,18.44
2018-09-05T06:56:43.504Z,18.55
2018-09-05T06:59:13.467Z,18.68
2018-09-05T07:01:43.157Z,18.90
2018-09-05T07:04:12.851Z,18.99
2018-09-05T07:06:46.008Z,19.00
2018-09-05T07:09:17.212Z,19.21
2018-09-05T07:11:49.506Z,19.26
2018-09-05T07:14:20.839Z,19.29
2018-09-05T07:16:51.957Z,19.47
2018-09-05T07:19:21.933Z,19.67
2018-09-05T07:21:51.971Z,19.90
2018-09-05T07:24:22.322Z,19.91
2018-09-05T07:26:51.961Z,20.00
2018-09-05T07:31:29.639Z,20.17
2018-09-05T07:34:02.107Z,20.41
2018-09-05T07:36:33.421Z,20.64
2018-09-05T07:39:06.246Z,20.93
2018-09-05T07:41:39.805Z,21.02
2018-09-05T07:44:10.070Z,21.13
2018-09-05T07:47:42.435Z,21.38
2018-09-05T07:50:12.774Z,21.40
2018-09-05T07:52:44.317Z,21.40
2018-09-05T07:55:14.734Z,21.63
2018-09-05T07:57:44.978Z,21.83
2018-09-05T08:00:16.523Z,22.09
2018-09-05T08:02:46.259Z,22.01
2018-09-05T08:05:18.627Z,22.10
2018-09-05T08:07:51.359Z,22.25
2018-09-05T08:10:24.562Z,22.28
2018-09-05T08:12:54.484Z,22.09
2018-09-05T08:15:25.683Z,22.15
2018-09-05T08:17:56.166Z,22.11
2018-09-05T08:20:30.172Z,21.97
2018-09-05T08:23:01.441Z,22.11
2018-09-05T08:25:32.255Z,22.10
2018-09-05T08:28:04.965Z,22.12
2018-09-05T08:30:36.697Z,22.07
2018-09-05T08:33:08.340Z,22.01
2018-09-05T08:35:39.059Z,22.18
2018-09-05T08:38:11.061Z,22.28
2018-09-05T08:40:41.889Z,22.28
2018-09-05T08:43:11.662Z,22.15
2018-09-05T08:45:43.426Z,22.33
2018-09-05T08:48:14.196Z,22.31
2018-09-05T08:50:43.877Z,22.45
2018-09-05T08:53:13.538Z,22.63
2018-09-05T08:55:43.956Z,22.57
2018-09-05T08:58:13.434Z,22.66
2018-09-05T09:00:47.595Z,22.70
2018-09-05T09:03:18.590Z,22.82
2018-09-05T09:05:48.298Z,22.88
2018-09-05T09:08:19.901Z,22.89
2018-09-05T09:11:18.289Z,22.94
2018-09-05T09:13:52.764Z,23.01
2018-09-05T09:16:25.894Z,23.03
2018-09-05T09:18:56.129Z,23.20
2018-09-05T09:21:27.174Z,23.31
2018-09-05T09:23:58.724Z,23.32
2018-09-05T09:26:29.616Z,23.39
2018-09-05T09:29:01.630Z,23.45
2018-09-05T09:31:34.980Z,23.47
2018-09-05T09:34:10.928Z,23.46
2018-09-05T09:36:41.174Z,23.33
2018-09-05T09:39:11.957Z,23.38
2018-09-05T09:41:41.946Z,23.42
2018-09-05T09:44:12.258Z,23.58
2018-09-05T09:46:45.876Z,23.69
2018-09-05T09:49:17.098Z,23.73
2018-09-05T09:51:49.881Z,23.62
2018-09-05T09:54:19.846Z,23.58
2018-09-05T09:56:50.579Z,23.62
2018-09-05T09:59:21.491Z,23.78
2018-09-05T10:01:58.274Z,23.82
2018-09-05T10:04:43.765Z,23.76
2018-09-05T10:10:12.218Z,23.94
2018-09-05T10:12:47.546Z,24.17
2018-09-05T10:15:22.134Z,24.18
2018-09-05T10:17:58.198Z,24.16
2018-09-05T10:20:28.627Z,24.20
2018-09-05T10:22:59.276Z,24.31
2018-09-05T10:25:30.262Z,24.46
2018-09-05T10:28:00.751Z,24.45
2018-09-05T10:30:32.843Z,24.58
2018-09-05T10:33:03.730Z,24.71
2018-09-05T10:35:36.029Z,24.74
2018-09-05T10:38:08.906Z,24.75
2018-09-05T10:40:38.727Z,24.81
2018-09-05T10:43:08.769Z,24.92
2018-09-05T10:45:38.612Z,25.01
2018-09-05T10:48:08.437Z,25.09
2018-09-05T10:50:39.780Z,25.16
2018-09-05T10:53:09.869Z,25.25
2018-09-05T10:55:41.925Z,25.32
2018-09-05T10:58:11.610Z,25.36
2018-09-05T11:00:43.237Z,25.42
2018-09-05T11:03:20.925Z,25.58
2018-09-05T11:05:54.927Z,25.73
2018-09-05T11:08:28.967Z,25.79
2018-09-05T11:11:03.819Z,25.92
2018-09-05T11:13:33.841Z,25.90
2018-09-05T11:16:04.800Z,25.88
2018-09-05T11:18:36.104Z,25.90
2018-09-05T11:21:05.945Z,25.89
2018-09-05T11:23:38.764Z,25.87
2018-09-05T11:26:13.724Z,25.94
2018-09-05T11:28:43.362Z,26.21
2018-09-05T11:31:15.761Z,26.36
2018-09-05T11:34:31.188Z,26.42
2018-09-05T11:37:02.607Z,26.45
2018-09-05T11:39:34.059Z,26.54
2018-09-05T11:42:06.928Z,26.70
2018-09-05T11:44:39.362Z,26.78
2018-09-05T11:47:12.151Z,26.71
2018-09-05T11:49:42.666Z,26.93
2018-09-05T11:52:14.238Z,27.00
2018-09-05T11:54:44.093Z,26.88
2018-09-05T11:57:19.021Z,26.85
2018-09-05T11:59:53.572Z,26.99
2018-09-05T12:02:23.780Z,27.26
2018-09-05T12:04:55.034Z,27.14
2018-09-05T12:07:30.068Z,27.26
2018-09-05T12:10:03.887Z,27.35
2018-09-05T12:12:34.086Z,27.45
2018-09-05T12:15:05.843Z,27.35
2018-09-05T12:17:36.407Z,27.28
2018-09-05T12:20:06.999Z,27.22
2018-09-05T12:22:38.409Z,27.32
2018-09-05T12:25:08.375Z,27.32
2018-09-05T12:27:39.160Z,27.54
2018-09-05T12:30:09.668Z,27.28
2018-09-05T12:32:40.714Z,27.67
2018-09-05T12:35:13.512Z,27.71
2018-09-05T12:37:44.292Z,27.89
2018-09-05T12:40:14.477Z,27.86
2018-09-05T12:42:44.204Z,27.79
2018-09-05T12:45:18.694Z,27.79
2018-09-05T12:47:50.215Z,27.82
2018-09-05T12:53:00.066Z,28.06
2018-09-05T12:55:34.384Z,28.06
2018-09-05T12:58:05.199Z,27.99
2018-09-05T13:00:36.836Z,28.11
2018-09-05T13:03:10.697Z,28.30
2018-09-05T13:05:45.057Z,28.52
2018-09-05T13:08:18.709Z,28.54
2018-09-05T13:10:53.629Z,28.42
2018-09-05T13:13:24.140Z,28.39
2018-09-05T13:16:00.162Z,28.46
2018-09-05T13:18:43.656Z,28.61
2018-09-05T13:21:16.549Z,28.67
2018-09-05T13:23:46.442Z,28.91
2018-09-05T13:26:19.601Z,28.87
2018-09-05T13:28:50.560Z,28.58
2018-09-05T13:31:27.878Z,27.99
2018-09-05T13:33:58.168Z,27.90
2018-09-05T13:36:30.174Z,28.17
2018-09-05T13:39:04.382Z,28.56
2018-09-05T13:41:34.627Z,28.85
2018-09-05T13:44:04.964Z,29.07
2018-09-05T13:46:36.593Z,29.31
2018-09-05T13:49:07.803Z,29.37
2018-09-05T13:51:37.786Z,29.49
2018-09-05T13:54:18.790Z,29.53
2018-09-05T13:56:49.302Z,29.41
2018-09-05T13:59:22.458Z,29.23
2018-09-05T14:01:52.603Z,29.10
2018-09-05T14:04:28.317Z,28.98
2018-09-05T14:06:58.022Z,28.98
2018-09-05T14:09:28.852Z,29.10
2018-09-05T14:12:02.253Z,29.03
2018-09-05T14:14:33.180Z,29.12
2018-09-05T14:17:04.131Z,29.15
2018-09-05T14:19:36.997Z,29.26
2018-09-05T14:22:08.975Z,29.36
2018-09-05T14:24:39.235Z,29.20
2018-09-05T14:27:15.288Z,29.00
2018-09-05T14:29:44.917Z,29.07
2018-09-05T14:32:14.808Z,29.07
2018-09-05T14:34:44.814Z,29.03
2018-09-05T14:37:15.039Z,29.20
2018-09-05T14:39:46.554Z,29.22
2018-09-05T14:42:16.613Z,29.36
2018-09-05T14:44:46.407Z,29.08
2018-09-05T14:47:19.890Z,29.11
2018-09-05T14:49:54.144Z,28.98
2018-09-05T14:52:25.522Z,29.13
2018-09-05T14:54:59.072Z,29.22
2018-09-05T14:57:32.754Z,29.30
2018-09-05T15:00:11.146Z,29.39
2018-09-05T15:02:45.373Z,29.43
2018-09-05T15:05:19.484Z,29.28
2018-09-05T15:07:53.736Z,29.25
2018-09-05T15:10:26.890Z,29.27
2018-09-05T15:13:03.824Z,29.18
2018-09-05T15:15:42.749Z,29.05
2018-09-05T15:18:13.816Z,29.12
2018-09-05T15:20:46.367Z,29.08
2018-09-05T15:23:16.499Z,29.03
2018-09-05T15:25:47.411Z,29.13
2018-09-05T15:28:22.829Z,29.27
2018-09-05T15:30:53.655Z,29.40
2018-09-05T15:33:24.036Z,29.37
2018-09-05T15:35:56.416Z,29.35
2018-09-05T15:38:28.122Z,29.31
2018-09-05T15:41:01.324Z,29.34
2018-09-05T15:43:43.166Z,29.48
2018-09-05T15:46:19.236Z,29.50
2018-09-05T15:48:50.249Z,29.57
2018-09-05T15:51:21.172Z,29.63
2018-09-05T15:53:56.887Z,29.45
2018-09-05T15:56:29.279Z,29.39
2018-09-05T15:59:03.929Z,29.46
2018-09-05T16:01:36.156Z,29.50
2018-09-05T16:04:08.694Z,29.82
2018-09-05T16:06:39.462Z,29.75
2018-09-05T16:09:10.871Z,29.88
2018-09-05T16:11:45.028Z,29.74
2018-09-05T16:14:16.729Z,29.51
2018-09-05T16:16:47.369Z,29.17
2018-09-05T16:19:21.130Z,29.00
2018-09-05T16:21:52.045Z,28.80
2018-09-05T16:24:28.948Z,28.77
2018-09-05T16:27:00.140Z,28.57
2018-09-05T16:29:32.641Z,28.32
2018-09-05T16:32:09.212Z,27.96
2018-09-05T16:34:42.655Z,27.88
2018-09-05T16:37:14.895Z,27.78
2018-09-05T16:39:47.289Z,27.65
2018-09-05T16:42:22.333Z,27.44
2018-09-05T16:44:52.805Z,27.38
2018-09-05T16:47:24.525Z,27.06
2018-09-05T16:49:54.772Z,26.86
2018-09-05T16:52:31.508Z,26.69
2018-09-05T16:55:12.467Z,26.63
2018-09-05T16:57:48.284Z,26.51
2018-09-05T17:00:22.853Z,26.47
2018-09-05T17:02:56.631Z,26.26
2018-09-05T17:05:32.768Z,26.15
2018-09-05T17:10:34.611Z,26.00
2018-09-05T17:13:06.484Z,25.92
2018-09-05T17:15:38.752Z,25.80
2018-09-05T17:18:09.176Z,25.65
2018-09-05T17:20:49.797Z,25.65
2018-09-05T17:23:27.254Z,25.52
2018-09-05T17:25:59.958Z,25.42
2018-09-05T17:28:31.123Z,25.07
2018-09-05T17:31:11.236Z,25.06
2018-09-05T17:33:45.452Z,25.06
2018-09-05T17:36:16.736Z,24.96
2018-09-05T17:38:48.945Z,24.84
2018-09-05T17:41:19.741Z,24.75
2018-09-05T17:43:55.484Z,24.61
2018-09-05T17:46:31.598Z,24.49
2018-09-05T17:49:07.208Z,24.38
2018-09-05T17:51:39.637Z,24.28
2018-09-05T17:54:10.320Z,24.20
2018-09-05T17:56:43.310Z,24.01
2018-09-05T17:59:15.848Z,23.93
2018-09-05T18:01:51.487Z,23.81
2018-09-05T18:04:29.044Z,23.65
2018-09-05T18:07:02.896Z,23.55
2018-09-05T18:09:42.707Z,23.48
2018-09-05T18:12:16.162Z,23.40
2018-09-05T18:14:49.216Z,23.41
2018-09-05T18:17:25.942Z,23.25
2018-09-05T18:20:31.416Z,23.13
2018-09-05T18:23:22.940Z,23.09
2018-09-05T18:25:57.443Z,22.98
2018-09-05T18:28:34.559Z,23.03
2018-09-05T18:31:09.571Z,22.97
2018-09-05T18:33:49.207Z,22.89
2018-09-05T18:36:24.462Z,22.88
2018-09-05T18:39:01.289Z,22.76
2018-09-05T18:41:33.239Z,22.69
2018-09-05T18:44:07.400Z,22.63
2018-09-05T18:46:39.251Z,22.31
2018-09-05T18:49:14.682Z,22.43
2018-09-05T18:51:48.929Z,22.39
2018-09-05T18:54:20.747Z,22.39
2018-09-05T18:56:59.380Z,22.32
2018-09-05T18:59:38.205Z,22.25
2018-09-05T19:02:13.684Z,22.16
2018-09-05T19:04:59.920Z,22.10
2018-09-05T19:07:37.025Z,22.03
2018-09-05T19:10:09.971Z,21.92
2018-09-05T19:12:53.775Z,21.89
2018-09-05T19:15:28.751Z,21.77
2018-09-05T19:18:04.618Z,21.66
2018-09-05T19:20:37.393Z,21.65
2018-09-05T19:23:09.662Z,21.60
2018-09-05T19:25:44.838Z,21.55
2018-09-05T19:28:16.290Z,21.53
2018-09-05T19:30:47.879Z,21.50
2018-09-05T19:33:17.882Z,21.42
2018-09-05T19:35:48.053Z,21.34
2018-09-05T19:38:18.689Z,21.25
2018-09-05T19:40:48.379Z,21.21
2018-09-05T19:43:19.088Z,21.16
2018-09-05T19:45:49.654Z,21.06
2018-09-05T19:48:20.943Z,21.03
2018-09-05T19:50:53.781Z,20.98
2018-09-05T19:53:24.566Z,20.94
2018-09-05T19:55:54.291Z,20.89
2018-09-05T19:58:24.131Z,20.82
2018-09-05T20:00:55.415Z,20.79
2018-09-05T20:03:27.285Z,20.71
2018-09-05T20:05:58.344Z,20.73
2018-09-05T20:08:29.517Z,20.66
2018-09-05T20:11:00.377Z,20.64
2018-09-05T20:13:31.976Z,20.60
2018-09-05T20:16:05.061Z,20.52
2018-09-05T20:18:36.975Z,20.51
2018-09-05T20:21:07.994Z,20.49
2018-09-05T20:23:39.289Z,20.47
2018-09-05T20:26:15.037Z,20.42
2018-09-05T20:28:44.832Z,20.35
2018-09-05T20:31:14.964Z,20.24
2018-09-05T20:33:45.510Z,20.15
2018-09-05T20:36:17.751Z,20.11
2018-09-05T20:38:48.248Z,20.10
2018-09-05T20:41:19.322Z,20.07
2018-09-05T20:43:49.115Z,19.99
2018-09-05T20:46:20.900Z,19.92
2018-09-05T20:48:50.684Z,19.90
2018-09-05T20:51:20.276Z,19.86
2018-09-05T20:53:50.815Z,19.76
2018-09-05T20:56:20.351Z,19.76
2018-09-05T20:58:50.139Z,19.76
2018-09-05T21:01:20.434Z,19.69
2018-09-05T21:03:50.769Z,19.66
2018-09-05T21:06:21.330Z,19.61
2018-09-05T21:08:51.476Z,19.59
2018-09-05T21:11:21.535Z,19.56
2018-09-05T21:13:51.832Z,19.33
2018-09-05T21:16:22.315Z,19.27
2018-09-05T21:18:51.941Z,19.46
2018-09-05T21:21:21.894Z,19.39
2018-09-05T21:23:52.427Z,19.38
2018-09-05T21:26:22.808Z,19.38
2018-09-05T21:28:53.689Z,19.34
2018-09-05T21:31:24.077Z,19.26
2018-09-05T21:33:54.536Z,19.24
2018-09-05T21:36:25.156Z,19.23
2018-09-05T21:38:56.088Z,19.23
2018-09-05T21:41:25.903Z,19.21
2018-09-05T21:43:55.819Z,19.16
2018-09-05T21:46:25.785Z,19.15
2018-09-05T21:48:55.422Z,19.10
2018-09-05T21:51:26.206Z,19.04
2018-09-05T21:53:57.039Z,19.09
2018-09-05T21:56:27.773Z,19.02
2018-09-05T21:58:57.505Z,18.86
2018-09-05T22:01:27.472Z,19.05
2018-09-05T22:03:57.416Z,19.14
2018-09-05T22:06:27.530Z,19.12
2018-09-05T22:08:57.366Z,19.09
2018-09-05T22:11:27.963Z,19.07
2018-09-05T22:13:58.034Z,19.10
2018-09-05T22:16:27.951Z,19.08
2018-09-05T22:18:57.732Z,19.06
2018-09-05T22:21:27.753Z,19.12
2018-09-05T22:23:58.334Z,19.10
2018-09-05T22:26:28.913Z,19.12
2018-09-05T22:28:58.866Z,19.14
2018-09-05T22:31:28.804Z,19.15
2018-09-05T22:33:58.749Z,19.05
2018-09-05T22:36:28.233Z,19.08
2018-09-05T22:38:58.120Z,19.11
2018-09-05T22:41:28.110Z,19.08
2018-09-05T22:44:08.359Z,19.17
2018-09-05T22:48:51.148Z,19.23
2018-09-05T22:53:40.524Z,19.07
2018-09-05T22:58:27.952Z,19.00
2018-09-05T23:01:09.249Z,18.98
2018-09-05T23:05:58.856Z,19.08
2018-09-05T23:08:40.661Z,18.97
2018-09-05T23:11:22.989Z,19.03
2018-09-05T23:14:03.162Z,19.13
2018-09-05T23:17:44.177Z,19.23
2018-09-05T23:20:59.436Z,19.20
2018-09-05T23:23:40.600Z,19.12
2018-09-05T23:26:10.909Z,19.18
2018-09-05T23:28:41.110Z,19.20
2018-09-05T23:31:10.844Z,19.13
2018-09-05T23:33:40.684Z,19.14
2018-09-05T23:36:10.643Z,19.08
2018-09-05T23:38:40.491Z,19.18
2018-09-05T23:41:10.732Z,19.24
2018-09-05T23:43:41.189Z,19.12
2018-09-05T23:46:11.393Z,19.12
2018-09-05T23:48:41.193Z,19.15
2018-09-05T23:51:10.798Z,19.16
2018-09-05T23:53:41.062Z,19.18
2018-09-05T23:56:11.163Z,19.18
2018-09-05T23:58:41.667Z,19.12
